sensor_id;sensor_type;location;lat;lon;timestamp;pressure;altitude;pressure_sealevel;temperature;humidity
50790;BME280;37287;47.554;7.844;2023-02-21T00:02:19;98432.63;;;1.88;100.00
50790;BME280;37287;47.554;7.844;2023-02-21T00:05:05;98432.13;;;1.86;100.00
50790;BME280;37287;47.554;7.844;2023-02-21T00:07:50;98430.69;;;1.80;100.00
50790;BME280;37287;47.554;7.844;2023-02-21T00:10:35;98435.03;;;1.76;100.00
50790;BME280;37287;47.554;7.844;2023-02-21T00:13:22;98436.44;;;1.74;100.00
50790;BME280;37287;47.554;7.844;2023-02-21T00:16:14;98418.47;;;1.65;100.00
50790;BME280;37287;47.554;7.844;2023-02-21T00:18:59;98421.44;;;1.64;100.00
50790;BME280;37287;47.554;7.844;2023-02-21T00:21:44;98422.66;;;1.58;100.00
50790;BME280;37287;47.554;7.844;2023-02-21T00:24:29;98416.34;;;1.53;100.00
50790;BME280;37287;47.554;7.844;2023-02-21T00:27:16;98423.38;;;1.49;100.00
50790;BME280;37287;47.554;7.844;2023-02-21T00:30:04;98426.25;;;1.53;100.00
50790;BME280;37287;47.554;7.844;2023-02-21T00:32:51;98413.00;;;1.48;100.00
50790;BME280;37287;47.554;7.844;2023-02-21T00:35:37;98414.22;;;1.42;100.00
50790;BME280;37287;47.554;7.844;2023-02-21T00:38:24;98416.88;;;1.42;100.00
50790;BME280;37287;47.554;7.844;2023-02-21T00:41:09;98398.22;;;1.42;100.00
50790;BME280;37287;47.554;7.844;2023-02-21T00:43:55;98398.00;;;1.38;100.00
50790;BME280;37287;47.554;7.844;2023-02-21T00:46:40;98396.25;;;1.33;100.00
50790;BME280;37287;47.554;7.844;2023-02-21T00:49:27;98396.88;;;1.30;100.00
50790;BME280;37287;47.554;7.844;2023-02-21T00:52:12;98403.38;;;1.24;100.00
50790;BME280;37287;47.554;7.844;2023-02-21T00:54:57;98404.28;;;1.19;100.00
50790;BME280;37287;47.554;7.844;2023-02-21T00:57:42;98392.94;;;1.14;100.00
50790;BME280;37287;47.554;7.844;2023-02-21T01:00:30;98393.72;;;1.14;100.00
50790;BME280;37287;47.554;7.844;2023-02-21T01:03:15;98406.59;;;1.12;100.00
50790;BME280;37287;47.554;7.844;2023-02-21T01:06:07;98397.59;;;1.08;100.00
50790;BME280;37287;47.554;7.844;2023-02-21T01:08:55;98400.88;;;1.05;100.00
50790;BME280;37287;47.554;7.844;2023-02-21T01:11:41;98401.19;;;1.03;100.00
50790;BME280;37287;47.554;7.844;2023-02-21T01:14:26;98396.16;;;1.02;100.00
50790;BME280;37287;47.554;7.844;2023-02-21T01:17:19;98392.28;;;0.94;100.00
50790;BME280;37287;47.554;7.844;2023-02-21T01:20:05;98395.25;;;0.93;100.00
50790;BME280;37287;47.554;7.844;2023-02-21T01:22:50;98400.88;;;0.91;100.00
50790;BME280;37287;47.554;7.844;2023-02-21T01:25:37;98406.13;;;0.96;100.00
50790;BME280;37287;47.554;7.844;2023-02-21T01:28:22;98394.34;;;0.97;100.00
50790;BME280;37287;47.554;7.844;2023-02-21T01:31:08;98391.22;;;0.95;100.00
50790;BME280;37287;47.554;7.844;2023-02-21T01:33:53;98399.59;;;0.89;100.00
50790;BME280;37287;47.554;7.844;2023-02-21T01:36:40;98405.84;;;0.84;100.00
50790;BME280;37287;47.554;7.844;2023-02-21T01:39:26;98398.25;;;0.77;100.00
50790;BME280;37287;47.554;7.844;2023-02-21T01:42:11;98393.13;;;0.67;100.00
50790;BME280;37287;47.554;7.844;2023-02-21T01:48:16;98391.22;;;0.54;100.00
50790;BME280;37287;47.554;7.844;2023-02-21T01:51:02;98395.69;;;0.44;100.00
50790;BME280;37287;47.554;7.844;2023-02-21T01:53:50;98388.06;;;0.38;100.00
50790;BME280;37287;47.554;7.844;2023-02-21T01:56:37;98383.13;;;0.31;100.00
50790;BME280;37287;47.554;7.844;2023-02-21T01:59:22;98390.81;;;0.32;100.00
50790;BME280;37287;47.554;7.844;2023-02-21T02:02:30;98391.13;;;0.31;100.00
50790;BME280;37287;47.554;7.844;2023-02-21T02:05:19;98388.97;;;0.33;100.00
50790;BME280;37287;47.554;7.844;2023-02-21T02:08:05;98385.22;;;0.34;100.00
50790;BME280;37287;47.554;7.844;2023-02-21T02:11:02;98367.16;;;0.31;100.00
50790;BME280;37287;47.554;7.844;2023-02-21T02:22:42;98368.94;;;0.22;100.00
50790;BME280;37287;47.554;7.844;2023-02-21T02:25:17;98370.91;;;0.30;100.00
50790;BME280;37287;47.554;7.844;2023-02-21T02:27:50;98366.28;;;0.36;100.00
50790;BME280;37287;47.554;7.844;2023-02-21T02:30:33;98369.72;;;0.36;100.00
50790;BME280;37287;47.554;7.844;2023-02-21T02:33:29;98363.22;;;0.28;100.00
50790;BME280;37287;47.554;7.844;2023-02-21T02:38:55;98365.78;;;0.33;100.00
50790;BME280;37287;47.554;7.844;2023-02-21T02:41:40;98364.50;;;0.31;100.00
50790;BME280;37287;47.554;7.844;2023-02-21T02:44:21;98351.78;;;0.28;100.00
50790;BME280;37287;47.554;7.844;2023-02-21T02:46:52;98353.66;;;0.27;100.00
50790;BME280;37287;47.554;7.844;2023-02-21T02:49:24;98354.25;;;0.24;100.00
50790;BME280;37287;47.554;7.844;2023-02-21T02:51:53;98348.72;;;0.21;100.00
50790;BME280;37287;47.554;7.844;2023-02-21T02:54:20;98341.78;;;0.20;100.00
50790;BME280;37287;47.554;7.844;2023-02-21T02:56:48;98339.53;;;0.27;100.00
50790;BME280;37287;47.554;7.844;2023-02-21T02:59:20;98326.81;;;0.24;100.00
50790;BME280;37287;47.554;7.844;2023-02-21T03:12:32;98324.75;;;0.21;100.00
50790;BME280;37287;47.554;7.844;2023-02-21T03:15:15;98326.03;;;0.23;100.00
50790;BME280;37287;47.554;7.844;2023-02-21T03:17:50;98324.66;;;0.26;100.00
50790;BME280;37287;47.554;7.844;2023-02-21T03:20:19;98323.06;;;0.25;100.00
50790;BME280;37287;47.554;7.844;2023-02-21T03:22:48;98331.84;;;0.25;100.00
50790;BME280;37287;47.554;7.844;2023-02-21T03:25:19;98329.38;;;0.29;100.00
50790;BME280;37287;47.554;7.844;2023-02-21T03:27:53;98326.03;;;0.23;100.00
50790;BME280;37287;47.554;7.844;2023-02-21T03:30:20;98326.94;;;0.19;100.00
50790;BME280;37287;47.554;7.844;2023-02-21T03:32:51;98320.50;;;0.20;100.00
50790;BME280;37287;47.554;7.844;2023-02-21T03:35:21;98324.34;;;0.13;100.00
50790;BME280;37287;47.554;7.844;2023-02-21T03:37:51;98326.81;;;0.10;100.00
50790;BME280;37287;47.554;7.844;2023-02-21T03:40:22;98328.78;;;0.04;100.00
50790;BME280;37287;47.554;7.844;2023-02-21T03:42:53;98334.22;;;-0.01;100.00
50790;BME280;37287;47.554;7.844;2023-02-21T03:45:20;98334.81;;;-0.04;100.00
50790;BME280;37287;47.554;7.844;2023-02-21T03:47:46;98328.25;;;-0.12;100.00
50790;BME280;37287;47.554;7.844;2023-02-21T03:50:17;98334.38;;;-0.11;100.00
50790;BME280;37287;47.554;7.844;2023-02-21T03:52:44;98331.53;;;-0.15;100.00
50790;BME280;37287;47.554;7.844;2023-02-21T03:55:11;98342.25;;;-0.20;100.00
50790;BME280;37287;47.554;7.844;2023-02-21T03:57:37;98339.47;;;-0.29;100.00
50790;BME280;37287;47.554;7.844;2023-02-21T04:00:04;98339.94;;;-0.41;100.00
50790;BME280;37287;47.554;7.844;2023-02-21T04:02:31;98338.72;;;-0.48;100.00
50790;BME280;37287;47.554;7.844;2023-02-21T04:04:58;98338.81;;;-0.54;100.00
50790;BME280;37287;47.554;7.844;2023-02-21T04:07:25;98340.19;;;-0.56;100.00
50790;BME280;37287;47.554;7.844;2023-02-21T04:09:52;98343.91;;;-0.57;100.00
50790;BME280;37287;47.554;7.844;2023-02-21T04:12:24;98339.59;;;-0.53;100.00
50790;BME280;37287;47.554;7.844;2023-02-21T04:14:50;98336.16;;;-0.54;100.00
50790;BME280;37287;47.554;7.844;2023-02-21T04:17:21;98344.63;;;-0.52;100.00
50790;BME280;37287;47.554;7.844;2023-02-21T04:19:53;98343.03;;;-0.53;100.00
50790;BME280;37287;47.554;7.844;2023-02-21T04:22:19;98350.16;;;-0.48;100.00
50790;BME280;37287;47.554;7.844;2023-02-21T04:24:46;98344.47;;;-0.41;100.00
50790;BME280;37287;47.554;7.844;2023-02-21T04:27:14;98343.97;;;-0.43;100.00
50790;BME280;37287;47.554;7.844;2023-02-21T04:29:41;98341.78;;;-0.41;100.00
50790;BME280;37287;47.554;7.844;2023-02-21T04:32:09;98342.38;;;-0.44;100.00
50790;BME280;37287;47.554;7.844;2023-02-21T04:34:38;98346.69;;;-0.48;100.00
50790;BME280;37287;47.554;7.844;2023-02-21T04:37:04;98338.22;;;-0.50;100.00
50790;BME280;37287;47.554;7.844;2023-02-21T04:39:31;98350.47;;;-0.49;100.00
50790;BME280;37287;47.554;7.844;2023-02-21T04:42:00;98342.97;;;-0.47;100.00
50790;BME280;37287;47.554;7.844;2023-02-21T04:44:26;98336.66;;;-0.52;100.00
50790;BME280;37287;47.554;7.844;2023-02-21T04:46:53;98339.13;;;-0.55;100.00
50790;BME280;37287;47.554;7.844;2023-02-21T04:49:21;98342.63;;;-0.60;100.00
50790;BME280;37287;47.554;7.844;2023-02-21T04:51:51;98347.47;;;-0.62;100.00
50790;BME280;37287;47.554;7.844;2023-02-21T04:54:20;98345.88;;;-0.63;100.00
50790;BME280;37287;47.554;7.844;2023-02-21T04:56:51;98349.88;;;-0.65;100.00
50790;BME280;37287;47.554;7.844;2023-02-21T04:59:17;98347.03;;;-0.69;100.00
50790;BME280;37287;47.554;7.844;2023-02-21T05:01:44;98351.34;;;-0.73;100.00
50790;BME280;37287;47.554;7.844;2023-02-21T05:04:11;98353.78;;;-0.77;100.00
50790;BME280;37287;47.554;7.844;2023-02-21T05:06:39;98349.53;;;-0.78;100.00
50790;BME280;37287;47.554;7.844;2023-02-21T05:09:06;98347.69;;;-0.77;100.00
50790;BME280;37287;47.554;7.844;2023-02-21T05:11:33;98342.44;;;-0.82;100.00
50790;BME280;37287;47.554;7.844;2023-02-21T05:14:01;98343.50;;;-0.83;100.00
50790;BME280;37287;47.554;7.844;2023-02-21T05:16:28;98336.09;;;-0.87;100.00
50790;BME280;37287;47.554;7.844;2023-02-21T05:18:55;98338.28;;;-0.89;100.00
50790;BME280;37287;47.554;7.844;2023-02-21T05:21:23;98342.00;;;-0.90;100.00
50790;BME280;37287;47.554;7.844;2023-02-21T05:23:50;98335.09;;;-0.91;100.00
50790;BME280;37287;47.554;7.844;2023-02-21T05:26:26;98335.91;;;-0.90;100.00
50790;BME280;37287;47.554;7.844;2023-02-21T05:28:55;98340.41;;;-0.91;100.00
50790;BME280;37287;47.554;7.844;2023-02-21T05:31:22;98333.03;;;-0.94;100.00
50790;BME280;37287;47.554;7.844;2023-02-21T05:33:53;98334.69;;;-0.98;100.00
50790;BME280;37287;47.554;7.844;2023-02-21T05:36:20;98335.25;;;-1.01;100.00
50790;BME280;37287;47.554;7.844;2023-02-21T05:38:49;98333.91;;;-0.98;100.00
50790;BME280;37287;47.554;7.844;2023-02-21T05:41:18;98336.03;;;-1.00;100.00
50790;BME280;37287;47.554;7.844;2023-02-21T05:43:48;98332.75;;;-0.92;100.00
50790;BME280;37287;47.554;7.844;2023-02-21T05:46:31;98337.13;;;-0.82;100.00
50790;BME280;37287;47.554;7.844;2023-02-21T05:48:59;98334.09;;;-0.76;100.00
50790;BME280;37287;47.554;7.844;2023-02-21T05:51:27;98328.44;;;-0.69;100.00
50790;BME280;37287;47.554;7.844;2023-02-21T05:53:58;98331.50;;;-0.62;100.00
50790;BME280;37287;47.554;7.844;2023-02-21T05:56:25;98331.50;;;-0.62;100.00
50790;BME280;37287;47.554;7.844;2023-02-21T05:58:54;98334.44;;;-0.63;100.00
50790;BME280;37287;47.554;7.844;2023-02-21T06:01:25;98333.88;;;-0.60;100.00
50790;BME280;37287;47.554;7.844;2023-02-21T06:03:52;98329.03;;;-0.58;100.00
50790;BME280;37287;47.554;7.844;2023-02-21T06:06:18;98333.28;;;-0.57;100.00
50790;BME280;37287;47.554;7.844;2023-02-21T06:08:46;98331.13;;;-0.55;100.00
50790;BME280;37287;47.554;7.844;2023-02-21T06:11:21;98328.75;;;-0.57;100.00
50790;BME280;37287;47.554;7.844;2023-02-21T06:13:51;98328.75;;;-0.57;100.00
50790;BME280;37287;47.554;7.844;2023-02-21T06:16:20;98329.56;;;-0.56;100.00
50790;BME280;37287;47.554;7.844;2023-02-21T06:18:54;98328.75;;;-0.57;100.00
50790;BME280;37287;47.554;7.844;2023-02-21T06:21:23;98326.38;;;-0.58;100.00
50790;BME280;37287;47.554;7.844;2023-02-21T06:23:51;98329.84;;;-0.58;100.00
50790;BME280;37287;47.554;7.844;2023-02-21T06:26:18;98326.88;;;-0.56;100.00
50790;BME280;37287;47.554;7.844;2023-02-21T06:28:46;98325.53;;;-0.54;100.00
50790;BME280;37287;47.554;7.844;2023-02-21T06:31:13;98322.75;;;-0.48;100.00
50790;BME280;37287;47.554;7.844;2023-02-21T06:33:40;98325.13;;;-0.47;100.00
50790;BME280;37287;47.554;7.844;2023-02-21T06:36:14;98326.13;;;-0.43;100.00
50790;BME280;37287;47.554;7.844;2023-02-21T06:38:45;98332.25;;;-0.42;100.00
50790;BME280;37287;47.554;7.844;2023-02-21T06:41:25;98332.25;;;-0.42;100.00
50790;BME280;37287;47.554;7.844;2023-02-21T06:43:55;98333.53;;;-0.40;100.00
50790;BME280;37287;47.554;7.844;2023-02-21T06:46:25;98334.22;;;-0.34;100.00
50790;BME280;37287;47.554;7.844;2023-02-21T06:48:53;98338.00;;;-0.35;100.00
50790;BME280;37287;47.554;7.844;2023-02-21T06:51:19;98338.47;;;-0.33;100.00
50790;BME280;37287;47.554;7.844;2023-02-21T06:53:48;98347.75;;;-0.30;100.00
50790;BME280;37287;47.554;7.844;2023-02-21T06:56:17;98347.75;;;-0.30;100.00
50790;BME280;37287;47.554;7.844;2023-02-21T06:58:44;98343.19;;;-0.30;100.00
50790;BME280;37287;47.554;7.844;2023-02-21T07:01:10;98354.34;;;-0.28;100.00
50790;BME280;37287;47.554;7.844;2023-02-21T07:03:40;98341.25;;;-0.24;100.00
50790;BME280;37287;47.554;7.844;2023-02-21T07:06:08;98353.09;;;-0.16;100.00
50790;BME280;37287;47.554;7.844;2023-02-21T07:08:35;98347.69;;;-0.11;100.00
50790;BME280;37287;47.554;7.844;2023-02-21T07:11:08;98349.97;;;-0.05;100.00
50790;BME280;37287;47.554;7.844;2023-02-21T07:13:35;98353.84;;;0.03;100.00
50790;BME280;37287;47.554;7.844;2023-02-21T07:16:03;98353.16;;;0.11;100.00
50790;BME280;37287;47.554;7.844;2023-02-21T07:18:32;98361.06;;;0.30;100.00
50790;BME280;37287;47.554;7.844;2023-02-21T07:21:01;98354.81;;;0.49;100.00
50790;BME280;37287;47.554;7.844;2023-02-21T07:23:28;98362.59;;;0.73;100.00
50790;BME280;37287;47.554;7.844;2023-02-21T07:25:54;98361.22;;;0.90;100.00
50790;BME280;37287;47.554;7.844;2023-02-21T07:28:21;98362.56;;;1.01;100.00
50790;BME280;37287;47.554;7.844;2023-02-21T07:30:48;98361.41;;;1.16;100.00
50790;BME280;37287;47.554;7.844;2023-02-21T07:33:16;98362.84;;;1.36;100.00
50790;BME280;37287;47.554;7.844;2023-02-21T07:35:44;98358.81;;;1.61;100.00
50790;BME280;37287;47.554;7.844;2023-02-21T07:38:24;98367.16;;;1.91;100.00
50790;BME280;37287;47.554;7.844;2023-02-21T07:40:54;98364.25;;;2.10;100.00
50790;BME280;37287;47.554;7.844;2023-02-21T07:43:20;98371.44;;;2.41;100.00
50790;BME280;37287;47.554;7.844;2023-02-21T07:45:47;98365.34;;;2.49;100.00
50790;BME280;37287;47.554;7.844;2023-02-21T07:48:17;98363.47;;;2.58;100.00
50790;BME280;37287;47.554;7.844;2023-02-21T07:50:44;98362.72;;;2.67;100.00
50790;BME280;37287;47.554;7.844;2023-02-21T07:53:13;98361.81;;;2.80;100.00
50790;BME280;37287;47.554;7.844;2023-02-21T07:55:40;98367.81;;;2.95;100.00
50790;BME280;37287;47.554;7.844;2023-02-21T07:58:07;98368.00;;;3.07;100.00
50790;BME280;37287;47.554;7.844;2023-02-21T08:00:34;98370.22;;;3.31;100.00
50790;BME280;37287;47.554;7.844;2023-02-21T08:03:05;98366.75;;;3.48;100.00
50790;BME280;37287;47.554;7.844;2023-02-21T08:05:34;98362.31;;;3.70;100.00
50790;BME280;37287;47.554;7.844;2023-02-21T08:08:01;98368.00;;;3.59;100.00
50790;BME280;37287;47.554;7.844;2023-02-21T08:10:28;98361.50;;;3.60;100.00
50790;BME280;37287;47.554;7.844;2023-02-21T08:12:54;98360.06;;;3.72;100.00
50790;BME280;37287;47.554;7.844;2023-02-21T08:15:21;98355.66;;;3.93;100.00
50790;BME280;37287;47.554;7.844;2023-02-21T08:17:50;98358.84;;;4.25;100.00
50790;BME280;37287;47.554;7.844;2023-02-21T08:20:17;98352.38;;;4.56;100.00
50790;BME280;37287;47.554;7.844;2023-02-21T08:22:44;98348.47;;;4.84;100.00
50790;BME280;37287;47.554;7.844;2023-02-21T08:25:14;98348.84;;;4.94;98.45
50790;BME280;37287;47.554;7.844;2023-02-21T08:27:41;98354.03;;;5.21;98.83
50790;BME280;37287;47.554;7.844;2023-02-21T08:30:11;98348.19;;;5.40;95.83
50790;BME280;37287;47.554;7.844;2023-02-21T08:32:40;98351.19;;;5.59;96.89
50790;BME280;37287;47.554;7.844;2023-02-21T08:35:07;98349.31;;;5.72;94.95
50790;BME280;37287;47.554;7.844;2023-02-21T08:37:33;98343.22;;;5.84;94.84
50790;BME280;37287;47.554;7.844;2023-02-21T08:40:03;98340.50;;;6.05;95.11
50790;BME280;37287;47.554;7.844;2023-02-21T08:42:30;98341.38;;;6.22;94.21
50790;BME280;37287;47.554;7.844;2023-02-21T08:44:57;98332.75;;;6.16;92.94
50790;BME280;37287;47.554;7.844;2023-02-21T08:47:25;98337.03;;;6.29;91.69
50790;BME280;37287;47.554;7.844;2023-02-21T08:49:53;98335.38;;;6.62;92.04
50790;BME280;37287;47.554;7.844;2023-02-21T08:52:21;98333.53;;;6.78;90.24
50790;BME280;37287;47.554;7.844;2023-02-21T08:54:49;98332.19;;;6.84;88.72
50790;BME280;37287;47.554;7.844;2023-02-21T08:57:16;98327.03;;;6.92;89.17
50790;BME280;37287;47.554;7.844;2023-02-21T08:59:43;98324.88;;;6.97;89.46
50790;BME280;37287;47.554;7.844;2023-02-21T09:02:19;98323.81;;;7.14;89.57
50790;BME280;37287;47.554;7.844;2023-02-21T09:04:46;98318.81;;;7.00;88.94
50790;BME280;37287;47.554;7.844;2023-02-21T09:07:17;98318.84;;;7.29;90.71
50790;BME280;37287;47.554;7.844;2023-02-21T09:09:44;98311.69;;;7.65;90.05
50790;BME280;37287;47.554;7.844;2023-02-21T09:12:12;98310.81;;;7.89;88.82
50790;BME280;37287;47.554;7.844;2023-02-21T09:14:45;98304.34;;;8.09;86.55
50790;BME280;37287;47.554;7.844;2023-02-21T09:17:13;98303.81;;;8.20;86.65
50790;BME280;37287;47.554;7.844;2023-02-21T09:19:42;98301.75;;;8.45;86.26
50790;BME280;37287;47.554;7.844;2023-02-21T09:22:16;98303.03;;;8.67;85.22
50790;BME280;37287;47.554;7.844;2023-02-21T09:24:43;98301.22;;;8.91;84.33
50790;BME280;37287;47.554;7.844;2023-02-21T09:27:10;98296.03;;;9.02;81.39
50790;BME280;37287;47.554;7.844;2023-02-21T09:29:37;98304.44;;;8.97;81.23
50790;BME280;37287;47.554;7.844;2023-02-21T09:32:12;98293.53;;;8.93;77.98
50790;BME280;37287;47.554;7.844;2023-02-21T09:34:39;98296.75;;;8.99;78.13
50790;BME280;37287;47.554;7.844;2023-02-21T09:37:06;98297.59;;;9.42;76.36
50790;BME280;37287;47.554;7.844;2023-02-21T09:39:36;98293.50;;;10.18;75.87
50790;BME280;37287;47.554;7.844;2023-02-21T09:42:04;98277.84;;;11.14;70.91
50790;BME280;37287;47.554;7.844;2023-02-21T09:44:31;98281.69;;;11.47;67.15
50790;BME280;37287;47.554;7.844;2023-02-21T09:47:05;98273.22;;;12.42;64.72
50790;BME280;37287;47.554;7.844;2023-02-21T09:49:38;98268.44;;;12.84;63.17
50790;BME280;37287;47.554;7.844;2023-02-21T09:52:20;98269.44;;;13.35;59.64
50790;BME280;37287;47.554;7.844;2023-02-21T09:54:53;98273.03;;;13.93;56.76
50790;BME280;37287;47.554;7.844;2023-02-21T09:57:24;98255.91;;;14.47;54.60
50790;BME280;37287;47.554;7.844;2023-02-21T09:59:51;98260.16;;;14.40;56.19
50790;BME280;37287;47.554;7.844;2023-02-21T10:02:30;98255.13;;;14.14;54.64
50790;BME280;37287;47.554;7.844;2023-02-21T10:05:23;98259.34;;;13.43;52.92
50790;BME280;37287;47.554;7.844;2023-02-21T10:10:49;98260.91;;;13.44;53.67
50790;BME280;37287;47.554;7.844;2023-02-21T10:13:45;98261.53;;;13.01;57.21
50790;BME280;37287;47.554;7.844;2023-02-21T10:16:25;98240.25;;;12.40;59.93
50790;BME280;37287;47.554;7.844;2023-02-21T10:19:06;98233.66;;;11.89;62.18
50790;BME280;37287;47.554;7.844;2023-02-21T10:21:40;98245.75;;;11.58;63.52
50790;BME280;37287;47.554;7.844;2023-02-21T10:24:13;98238.22;;;11.02;65.94
50790;BME280;37287;47.554;7.844;2023-02-21T10:26:45;98233.53;;;10.99;67.22
50790;BME280;37287;47.554;7.844;2023-02-21T10:29:20;98228.81;;;10.93;68.25
50790;BME280;37287;47.554;7.844;2023-02-21T10:31:48;98227.28;;;10.92;67.42
50790;BME280;37287;47.554;7.844;2023-02-21T10:34:26;98224.63;;;10.65;68.06
50790;BME280;37287;47.554;7.844;2023-02-21T10:36:55;98222.66;;;10.62;70.08
50790;BME280;37287;47.554;7.844;2023-02-21T10:39:43;98224.41;;;10.81;68.57
50790;BME280;37287;47.554;7.844;2023-02-21T10:42:24;98218.78;;;10.63;68.09
50790;BME280;37287;47.554;7.844;2023-02-21T10:44:52;98210.66;;;10.63;67.43
50790;BME280;37287;47.554;7.844;2023-02-21T10:47:26;98213.78;;;10.65;68.42
50790;BME280;37287;47.554;7.844;2023-02-21T10:50:05;98209.69;;;10.78;67.50
50790;BME280;37287;47.554;7.844;2023-02-21T10:52:45;98203.63;;;10.89;66.33
50790;BME280;37287;47.554;7.844;2023-02-21T10:55:19;98205.75;;;11.06;67.40
50790;BME280;37287;47.554;7.844;2023-02-21T10:58:05;98199.19;;;11.07;65.71
50790;BME280;37287;47.554;7.844;2023-02-21T11:00:35;98193.47;;;11.16;65.25
50790;BME280;37287;47.554;7.844;2023-02-21T11:03:06;98187.84;;;10.98;65.04
50790;BME280;37287;47.554;7.844;2023-02-21T11:05:34;98177.59;;;11.14;66.30
50790;BME280;37287;47.554;7.844;2023-02-21T11:08:08;98171.53;;;11.28;65.52
50790;BME280;37287;47.554;7.844;2023-02-21T11:10:39;98162.41;;;11.47;65.65
50790;BME280;37287;47.554;7.844;2023-02-21T11:13:20;98159.97;;;11.35;64.45
50790;BME280;37287;47.554;7.844;2023-02-21T11:16:10;98156.69;;;11.60;65.03
50790;BME280;37287;47.554;7.844;2023-02-21T11:18:39;98156.47;;;11.79;65.16
50790;BME280;37287;47.554;7.844;2023-02-21T11:21:17;98146.13;;;11.96;64.18
50790;BME280;37287;47.554;7.844;2023-02-21T11:23:59;98153.16;;;12.00;63.62
50790;BME280;37287;47.554;7.844;2023-02-21T11:26:35;98137.59;;;11.94;65.32
50790;BME280;37287;47.554;7.844;2023-02-21T11:29:11;98134.94;;;12.01;65.34
50790;BME280;37287;47.554;7.844;2023-02-21T11:31:39;98122.94;;;12.06;64.55
50790;BME280;37287;47.554;7.844;2023-02-21T11:34:08;98117.94;;;12.18;64.77
50790;BME280;37287;47.554;7.844;2023-02-21T11:36:38;98118.38;;;12.24;65.36
50790;BME280;37287;47.554;7.844;2023-02-21T11:39:31;98111.03;;;12.25;64.87
50790;BME280;37287;47.554;7.844;2023-02-21T11:42:03;98103.31;;;12.41;65.54
50790;BME280;37287;47.554;7.844;2023-02-21T11:44:32;98108.44;;;12.57;65.33
50790;BME280;37287;47.554;7.844;2023-02-21T11:47:26;98101.00;;;12.47;64.08
50790;BME280;37287;47.554;7.844;2023-02-21T11:50:06;98098.28;;;12.47;64.97
50790;BME280;37287;47.554;7.844;2023-02-21T11:52:38;98092.47;;;12.45;63.52
50790;BME280;37287;47.554;7.844;2023-02-21T11:55:16;98081.66;;;12.55;64.56
50790;BME280;37287;47.554;7.844;2023-02-21T12:00:49;98067.28;;;12.55;64.20
50790;BME280;37287;47.554;7.844;2023-02-21T12:03:50;98067.69;;;12.57;63.91
50790;BME280;37287;47.554;7.844;2023-02-21T12:06:40;98061.13;;;12.76;64.27
50790;BME280;37287;47.554;7.844;2023-02-21T12:09:14;98055.31;;;12.85;63.04
50790;BME280;37287;47.554;7.844;2023-02-21T12:11:52;98062.72;;;13.02;63.09
50790;BME280;37287;47.554;7.844;2023-02-21T12:17:41;98048.38;;;13.05;61.52
50790;BME280;37287;47.554;7.844;2023-02-21T12:20:23;98034.00;;;13.27;62.80
50790;BME280;37287;47.554;7.844;2023-02-21T12:34:51;98009.16;;;13.46;60.28
50790;BME280;37287;47.554;7.844;2023-02-21T12:40:57;98000.59;;;13.44;59.90
50790;BME280;37287;47.554;7.844;2023-02-21T12:43:49;98002.50;;;13.58;61.42
50790;BME280;37287;47.554;7.844;2023-02-21T12:49:11;97991.63;;;13.54;61.79
50790;BME280;37287;47.554;7.844;2023-02-21T12:52:03;97983.09;;;13.52;59.63
50790;BME280;37287;47.554;7.844;2023-02-21T12:57:47;97979.56;;;13.66;60.91
50790;BME280;37287;47.554;7.844;2023-02-21T13:00:35;97976.06;;;13.66;60.20
50790;BME280;37287;47.554;7.844;2023-02-21T13:03:32;97960.88;;;13.72;60.20
50790;BME280;37287;47.554;7.844;2023-02-21T13:06:14;97956.19;;;13.83;61.74
50790;BME280;37287;47.554;7.844;2023-02-21T13:08:51;97957.66;;;13.99;61.91
50790;BME280;37287;47.554;7.844;2023-02-21T13:14:39;97942.13;;;13.96;60.79
50790;BME280;37287;47.554;7.844;2023-02-21T13:17:32;97940.59;;;13.95;61.08
50790;BME280;37287;47.554;7.844;2023-02-21T13:20:09;97939.38;;;14.03;61.28
50790;BME280;37287;47.554;7.844;2023-02-21T13:22:47;97936.25;;;14.01;60.61
50790;BME280;37287;47.554;7.844;2023-02-21T13:28:25;97929.97;;;14.18;60.96
50790;BME280;37287;47.554;7.844;2023-02-21T13:31:00;97934.97;;;14.23;60.30
50790;BME280;37287;47.554;7.844;2023-02-21T13:33:47;97918.63;;;14.27;60.00
50790;BME280;37287;47.554;7.844;2023-02-21T13:41:52;97909.94;;;14.47;60.72
50790;BME280;37287;47.554;7.844;2023-02-21T13:44:25;97907.50;;;14.56;59.73
50790;BME280;37287;47.554;7.844;2023-02-21T13:47:06;97899.72;;;14.58;57.61
50790;BME280;37287;47.554;7.844;2023-02-21T14:13:40;97861.06;;;14.74;58.06
50790;BME280;37287;47.554;7.844;2023-02-21T14:18:57;97851.81;;;14.64;55.65
50790;BME280;37287;47.554;7.844;2023-02-21T14:21:38;97850.25;;;14.63;54.21
50790;BME280;37287;47.554;7.844;2023-02-21T14:29:14;97843.63;;;14.68;56.71
50790;BME280;37287;47.554;7.844;2023-02-21T14:31:55;97837.78;;;14.69;55.47
50790;BME280;37287;47.554;7.844;2023-02-21T14:34:50;97833.09;;;14.70;55.79
50790;BME280;37287;47.554;7.844;2023-02-21T14:37:33;97832.28;;;14.73;54.50
50790;BME280;37287;47.554;7.844;2023-02-21T14:48:24;97824.28;;;14.51;55.33
50790;BME280;37287;47.554;7.844;2023-02-21T14:51:33;97819.63;;;14.48;54.20
50790;BME280;37287;47.554;7.844;2023-02-21T14:54:24;97821.97;;;14.50;55.99
50790;BME280;37287;47.554;7.844;2023-02-21T14:56:57;97816.56;;;14.42;54.41
50790;BME280;37287;47.554;7.844;2023-02-21T15:00:01;97815.06;;;14.38;51.97
50790;BME280;37287;47.554;7.844;2023-02-21T15:03:18;97808.06;;;14.37;51.15
50790;BME280;37287;47.554;7.844;2023-02-21T15:08:21;97801.09;;;14.32;51.71
50790;BME280;37287;47.554;7.844;2023-02-21T15:11:00;97802.69;;;14.30;51.36
50790;BME280;37287;47.554;7.844;2023-02-21T15:13:29;97801.94;;;14.25;53.37
50790;BME280;37287;47.554;7.844;2023-02-21T15:16:03;97801.13;;;14.25;52.01
50790;BME280;37287;47.554;7.844;2023-02-21T15:18:35;97804.66;;;14.22;51.49
50790;BME280;37287;47.554;7.844;2023-02-21T15:21:14;97805.47;;;14.22;54.10
50790;BME280;37287;47.554;7.844;2023-02-21T15:23:48;97798.47;;;14.18;53.81
50790;BME280;37287;47.554;7.844;2023-02-21T15:26:29;97800.84;;;14.16;53.74
50790;BME280;37287;47.554;7.844;2023-02-21T15:29:11;97797.38;;;14.08;52.14